sensor_id;sensor_type;location;lat;lon;timestamp;P1;durP1;ratioP1;P2;durP2;ratioP2
12482;SDS011;6306;47.134;15.344;2022-09-09T00:04:15;1.70;;;1.10;;
12482;SDS011;6306;47.134;15.344;2022-09-09T00:06:45;1.90;;;1.33;;
12482;SDS011;6306;47.134;15.344;2022-09-09T00:09:12;3.90;;;2.10;;
12482;SDS011;6306;47.134;15.344;2022-09-09T00:14:32;1.50;;;1.40;;
12482;SDS011;6306;47.134;15.344;2022-09-09T00:17:01;2.03;;;1.57;;
12482;SDS011;6306;47.134;15.344;2022-09-09T00:19:44;2.00;;;1.10;;
12482;SDS011;6306;47.134;15.344;2022-09-09T00:22:16;1.63;;;1.50;;
12482;SDS011;6306;47.134;15.344;2022-09-09T00:24:46;2.10;;;1.27;;
12482;SDS011;6306;47.134;15.344;2022-09-09T00:29:53;1.60;;;1.47;;
12482;SDS011;6306;47.134;15.344;2022-09-09T00:32:20;1.90;;;1.50;;
12482;SDS011;6306;47.134;15.344;2022-09-09T00:34:48;1.80;;;1.33;;
12482;SDS011;6306;47.134;15.344;2022-09-09T00:37:14;3.30;;;1.60;;
12482;SDS011;6306;47.134;15.344;2022-09-09T00:39:42;2.27;;;2.07;;
12482;SDS011;6306;47.134;15.344;2022-09-09T00:42:13;2.40;;;1.27;;
12482;SDS011;6306;47.134;15.344;2022-09-09T00:44:44;3.23;;;2.23;;
12482;SDS011;6306;47.134;15.344;2022-09-09T00:57:51;3.50;;;1.70;;
12482;SDS011;6306;47.134;15.344;2022-09-09T01:05:24;1.93;;;1.57;;
12482;SDS011;6306;47.134;15.344;2022-09-09T01:07:52;2.10;;;1.90;;
12482;SDS011;6306;47.134;15.344;2022-09-09T01:13:08;2.27;;;2.07;;
12482;SDS011;6306;47.134;15.344;2022-09-09T01:15:38;3.37;;;1.93;;
12482;SDS011;6306;47.134;15.344;2022-09-09T01:18:05;1.90;;;1.80;;
12482;SDS011;6306;47.134;15.344;2022-09-09T01:23:26;4.83;;;1.80;;
12482;SDS011;6306;47.134;15.344;2022-09-09T01:28:35;2.70;;;2.07;;
12482;SDS011;6306;47.134;15.344;2022-09-09T01:31:05;2.57;;;2.00;;
12482;SDS011;6306;47.134;15.344;2022-09-09T01:33:32;3.27;;;1.60;;
12482;SDS011;6306;47.134;15.344;2022-09-09T01:38:50;1.93;;;1.70;;
12482;SDS011;6306;47.134;15.344;2022-09-09T01:41:16;2.30;;;2.20;;
12482;SDS011;6306;47.134;15.344;2022-09-09T01:43:42;2.37;;;1.77;;
12482;SDS011;6306;47.134;15.344;2022-09-09T01:46:09;4.47;;;2.33;;
12482;SDS011;6306;47.134;15.344;2022-09-09T01:48:35;5.00;;;2.60;;
12482;SDS011;6306;47.134;15.344;2022-09-09T01:51:01;13.33;;;2.83;;
12482;SDS011;6306;47.134;15.344;2022-09-09T01:53:27;2.20;;;2.00;;
12482;SDS011;6306;47.134;15.344;2022-09-09T02:00:51;3.90;;;2.73;;
12482;SDS011;6306;47.134;15.344;2022-09-09T02:03:24;3.77;;;2.23;;
12482;SDS011;6306;47.134;15.344;2022-09-09T02:08:35;3.90;;;2.83;;
12482;SDS011;6306;47.134;15.344;2022-09-09T02:11:06;4.20;;;2.93;;
12482;SDS011;6306;47.134;15.344;2022-09-09T02:13:35;3.03;;;2.73;;
12482;SDS011;6306;47.134;15.344;2022-09-09T02:16:10;5.27;;;4.27;;
12482;SDS011;6306;47.134;15.344;2022-09-09T02:18:42;2.60;;;2.40;;
12482;SDS011;6306;47.134;15.344;2022-09-09T02:21:11;3.43;;;2.70;;
12482;SDS011;6306;47.134;15.344;2022-09-09T02:23:39;3.50;;;2.47;;
12482;SDS011;6306;47.134;15.344;2022-09-09T02:26:06;4.57;;;2.50;;
12482;SDS011;6306;47.134;15.344;2022-09-09T02:28:33;3.37;;;2.10;;
12482;SDS011;6306;47.134;15.344;2022-09-09T02:31:00;2.40;;;2.20;;
12482;SDS011;6306;47.134;15.344;2022-09-09T02:33:27;2.50;;;2.20;;
12482;SDS011;6306;47.134;15.344;2022-09-09T02:35:54;2.50;;;2.30;;
12482;SDS011;6306;47.134;15.344;2022-09-09T02:38:26;6.40;;;2.87;;
12482;SDS011;6306;47.134;15.344;2022-09-09T02:40:54;2.77;;;2.57;;
12482;SDS011;6306;47.134;15.344;2022-09-09T02:43:20;3.67;;;2.67;;
12482;SDS011;6306;47.134;15.344;2022-09-09T02:45:57;4.60;;;2.90;;
12482;SDS011;6306;47.134;15.344;2022-09-09T02:48:32;3.00;;;2.63;;
12482;SDS011;6306;47.134;15.344;2022-09-09T02:51:07;5.73;;;2.90;;
12482;SDS011;6306;47.134;15.344;2022-09-09T02:56:20;3.10;;;2.80;;
12482;SDS011;6306;47.134;15.344;2022-09-09T02:58:47;2.47;;;2.27;;
12482;SDS011;6306;47.134;15.344;2022-09-09T03:01:17;4.00;;;2.30;;
12482;SDS011;6306;47.134;15.344;2022-09-09T03:03:43;3.53;;;2.50;;
12482;SDS011;6306;47.134;15.344;2022-09-09T03:06:09;3.23;;;2.93;;
12482;SDS011;6306;47.134;15.344;2022-09-09T03:08:37;2.93;;;2.73;;
12482;SDS011;6306;47.134;15.344;2022-09-09T03:11:03;2.90;;;2.60;;
12482;SDS011;6306;47.134;15.344;2022-09-09T03:13:29;3.20;;;2.90;;
12482;SDS011;6306;47.134;15.344;2022-09-09T03:15:55;4.17;;;3.30;;
12482;SDS011;6306;47.134;15.344;2022-09-09T03:18:21;11.83;;;3.40;;
12482;SDS011;6306;47.134;15.344;2022-09-09T03:20:48;3.30;;;2.80;;
12482;SDS011;6306;47.134;15.344;2022-09-09T03:23:14;4.00;;;2.87;;
12482;SDS011;6306;47.134;15.344;2022-09-09T03:25:46;2.90;;;2.70;;
12482;SDS011;6306;47.134;15.344;2022-09-09T03:28:12;2.30;;;2.10;;
12482;SDS011;6306;47.134;15.344;2022-09-09T03:30:39;3.20;;;2.90;;
12482;SDS011;6306;47.134;15.344;2022-09-09T03:33:05;3.97;;;2.73;;
12482;SDS011;6306;47.134;15.344;2022-09-09T03:35:31;3.33;;;3.13;;
12482;SDS011;6306;47.134;15.344;2022-09-09T03:37:57;3.13;;;2.63;;
12482;SDS011;6306;47.134;15.344;2022-09-09T03:40:23;4.37;;;3.47;;
12482;SDS011;6306;47.134;15.344;2022-09-09T03:42:49;3.20;;;2.93;;
12482;SDS011;6306;47.134;15.344;2022-09-09T03:45:15;3.20;;;2.90;;
12482;SDS011;6306;47.134;15.344;2022-09-09T03:47:42;3.37;;;3.07;;
12482;SDS011;6306;47.134;15.344;2022-09-09T03:50:08;2.97;;;2.77;;
12482;SDS011;6306;47.134;15.344;2022-09-09T03:52:38;6.90;;;3.27;;
12482;SDS011;6306;47.134;15.344;2022-09-09T03:55:06;3.07;;;2.77;;
12482;SDS011;6306;47.134;15.344;2022-09-09T03:57:32;2.60;;;2.40;;
12482;SDS011;6306;47.134;15.344;2022-09-09T04:00:00;2.90;;;2.70;;
12482;SDS011;6306;47.134;15.344;2022-09-09T04:02:26;4.93;;;3.40;;
12482;SDS011;6306;47.134;15.344;2022-09-09T04:04:52;4.27;;;2.80;;
12482;SDS011;6306;47.134;15.344;2022-09-09T04:07:18;3.43;;;3.13;;
12482;SDS011;6306;47.134;15.344;2022-09-09T04:09:44;2.90;;;2.53;;
12482;SDS011;6306;47.134;15.344;2022-09-09T04:12:10;5.57;;;3.57;;
12482;SDS011;6306;47.134;15.344;2022-09-09T04:14:38;7.43;;;4.17;;
12482;SDS011;6306;47.134;15.344;2022-09-09T04:17:04;6.60;;;3.60;;
12482;SDS011;6306;47.134;15.344;2022-09-09T04:19:31;3.90;;;3.17;;
12482;SDS011;6306;47.134;15.344;2022-09-09T04:21:57;5.00;;;3.30;;
12482;SDS011;6306;47.134;15.344;2022-09-09T04:24:24;3.03;;;2.70;;
12482;SDS011;6306;47.134;15.344;2022-09-09T04:26:52;3.80;;;3.50;;
12482;SDS011;6306;47.134;15.344;2022-09-09T04:29:18;4.53;;;3.20;;
12482;SDS011;6306;47.134;15.344;2022-09-09T04:31:44;5.03;;;3.00;;
12482;SDS011;6306;47.134;15.344;2022-09-09T04:34:10;4.80;;;3.57;;
12482;SDS011;6306;47.134;15.344;2022-09-09T04:36:36;2.73;;;2.53;;
12482;SDS011;6306;47.134;15.344;2022-09-09T04:39:04;3.07;;;2.80;;
12482;SDS011;6306;47.134;15.344;2022-09-09T04:41:30;5.77;;;3.00;;
12482;SDS011;6306;47.134;15.344;2022-09-09T04:43:56;3.33;;;3.13;;
12482;SDS011;6306;47.134;15.344;2022-09-09T04:46:22;3.93;;;3.40;;
12482;SDS011;6306;47.134;15.344;2022-09-09T04:48:49;6.83;;;3.37;;
12482;SDS011;6306;47.134;15.344;2022-09-09T04:51:16;5.10;;;3.50;;
12482;SDS011;6306;47.134;15.344;2022-09-09T04:53:42;4.73;;;3.30;;
12482;SDS011;6306;47.134;15.344;2022-09-09T04:56:09;5.20;;;3.37;;
12482;SDS011;6306;47.134;15.344;2022-09-09T04:58:36;5.40;;;3.13;;
12482;SDS011;6306;47.134;15.344;2022-09-09T05:01:06;3.20;;;2.90;;
12482;SDS011;6306;47.134;15.344;2022-09-09T05:03:32;5.70;;;2.93;;
12482;SDS011;6306;47.134;15.344;2022-09-09T05:06:08;4.30;;;2.87;;
12482;SDS011;6306;47.134;15.344;2022-09-09T05:08:37;3.00;;;2.70;;
12482;SDS011;6306;47.134;15.344;2022-09-09T05:11:12;3.27;;;2.97;;
12482;SDS011;6306;47.134;15.344;2022-09-09T05:13:38;3.30;;;3.00;;
12482;SDS011;6306;47.134;15.344;2022-09-09T05:16:05;3.00;;;2.80;;
12482;SDS011;6306;47.134;15.344;2022-09-09T05:18:31;3.20;;;2.90;;
12482;SDS011;6306;47.134;15.344;2022-09-09T05:21:00;8.33;;;3.07;;
12482;SDS011;6306;47.134;15.344;2022-09-09T05:23:26;4.87;;;2.70;;
12482;SDS011;6306;47.134;15.344;2022-09-09T05:25:59;3.17;;;2.87;;
12482;SDS011;6306;47.134;15.344;2022-09-09T05:28:25;3.20;;;2.90;;
12482;SDS011;6306;47.134;15.344;2022-09-09T05:30:55;3.73;;;3.40;;
12482;SDS011;6306;47.134;15.344;2022-09-09T05:33:22;4.93;;;3.10;;
12482;SDS011;6306;47.134;15.344;2022-09-09T05:35:54;4.50;;;3.10;;
12482;SDS011;6306;47.134;15.344;2022-09-09T05:38:21;4.83;;;3.20;;
12482;SDS011;6306;47.134;15.344;2022-09-09T05:40:50;3.33;;;3.03;;
12482;SDS011;6306;47.134;15.344;2022-09-09T05:43:17;3.97;;;3.53;;
12482;SDS011;6306;47.134;15.344;2022-09-09T05:45:43;4.53;;;3.43;;
12482;SDS011;6306;47.134;15.344;2022-09-09T05:48:09;2.93;;;2.73;;
12482;SDS011;6306;47.134;15.344;2022-09-09T05:50:35;3.40;;;3.10;;
12482;SDS011;6306;47.134;15.344;2022-09-09T05:53:01;3.50;;;3.30;;
12482;SDS011;6306;47.134;15.344;2022-09-09T05:55:28;3.90;;;3.50;;
12482;SDS011;6306;47.134;15.344;2022-09-09T05:57:54;3.73;;;3.43;;
12482;SDS011;6306;47.134;15.344;2022-09-09T06:00:21;3.47;;;3.17;;
12482;SDS011;6306;47.134;15.344;2022-09-09T06:02:51;4.07;;;2.97;;
12482;SDS011;6306;47.134;15.344;2022-09-09T06:05:18;3.83;;;3.07;;
12482;SDS011;6306;47.134;15.344;2022-09-09T06:07:44;3.33;;;2.90;;
12482;SDS011;6306;47.134;15.344;2022-09-09T06:10:10;6.23;;;3.30;;
12482;SDS011;6306;47.134;15.344;2022-09-09T06:12:39;3.57;;;3.27;;
12482;SDS011;6306;47.134;15.344;2022-09-09T06:15:05;5.07;;;3.20;;
12482;SDS011;6306;47.134;15.344;2022-09-09T06:17:33;3.50;;;2.80;;
12482;SDS011;6306;47.134;15.344;2022-09-09T06:19:59;3.83;;;3.53;;
12482;SDS011;6306;47.134;15.344;2022-09-09T06:22:25;3.40;;;3.10;;
12482;SDS011;6306;47.134;15.344;2022-09-09T06:24:51;12.30;;;3.30;;
12482;SDS011;6306;47.134;15.344;2022-09-09T06:27:18;3.73;;;2.43;;
12482;SDS011;6306;47.134;15.344;2022-09-09T06:29:44;2.57;;;2.37;;
12482;SDS011;6306;47.134;15.344;2022-09-09T06:32:10;3.57;;;2.70;;
12482;SDS011;6306;47.134;15.344;2022-09-09T06:34:36;4.97;;;2.73;;
12482;SDS011;6306;47.134;15.344;2022-09-09T06:37:02;3.30;;;2.60;;
12482;SDS011;6306;47.134;15.344;2022-09-09T06:39:29;3.43;;;2.17;;
12482;SDS011;6306;47.134;15.344;2022-09-09T06:41:56;3.27;;;2.97;;
12482;SDS011;6306;47.134;15.344;2022-09-09T06:44:23;2.77;;;2.57;;
12482;SDS011;6306;47.134;15.344;2022-09-09T06:46:51;6.67;;;2.83;;
12482;SDS011;6306;47.134;15.344;2022-09-09T06:49:18;3.30;;;3.03;;
12482;SDS011;6306;47.134;15.344;2022-09-09T06:51:44;3.53;;;2.77;;
12482;SDS011;6306;47.134;15.344;2022-09-09T06:54:11;3.40;;;2.33;;
12482;SDS011;6306;47.134;15.344;2022-09-09T06:56:38;2.63;;;2.43;;
12482;SDS011;6306;47.134;15.344;2022-09-09T06:59:07;2.43;;;2.23;;
12482;SDS011;6306;47.134;15.344;2022-09-09T07:01:37;3.50;;;2.97;;
12482;SDS011;6306;47.134;15.344;2022-09-09T07:04:05;2.40;;;2.20;;
12482;SDS011;6306;47.134;15.344;2022-09-09T07:06:40;3.30;;;2.23;;
12482;SDS011;6306;47.134;15.344;2022-09-09T07:09:09;2.53;;;2.33;;
12482;SDS011;6306;47.134;15.344;2022-09-09T07:11:39;3.07;;;2.73;;
12482;SDS011;6306;47.134;15.344;2022-09-09T07:14:06;3.10;;;2.30;;
12482;SDS011;6306;47.134;15.344;2022-09-09T07:16:32;6.67;;;2.73;;
12482;SDS011;6306;47.134;15.344;2022-09-09T07:19:02;2.27;;;2.10;;
12482;SDS011;6306;47.134;15.344;2022-09-09T07:21:28;3.40;;;2.50;;
12482;SDS011;6306;47.134;15.344;2022-09-09T07:23:55;2.77;;;2.50;;
12482;SDS011;6306;47.134;15.344;2022-09-09T07:26:22;3.47;;;2.80;;
12482;SDS011;6306;47.134;15.344;2022-09-09T07:28:49;2.80;;;2.60;;
12482;SDS011;6306;47.134;15.344;2022-09-09T07:31:19;8.47;;;3.70;;
12482;SDS011;6306;47.134;15.344;2022-09-09T07:33:45;3.03;;;2.73;;
12482;SDS011;6306;47.134;15.344;2022-09-09T07:38:42;5.13;;;2.70;;
12482;SDS011;6306;47.134;15.344;2022-09-09T07:41:11;2.33;;;2.20;;
12482;SDS011;6306;47.134;15.344;2022-09-09T07:43:41;2.40;;;2.20;;
12482;SDS011;6306;47.134;15.344;2022-09-09T07:46:07;3.03;;;2.50;;
12482;SDS011;6306;47.134;15.344;2022-09-09T07:48:33;5.10;;;2.90;;
12482;SDS011;6306;47.134;15.344;2022-09-09T07:51:04;2.93;;;2.47;;
12482;SDS011;6306;47.134;15.344;2022-09-09T07:53:31;3.33;;;2.50;;
12482;SDS011;6306;47.134;15.344;2022-09-09T07:56:04;3.17;;;2.00;;
12482;SDS011;6306;47.134;15.344;2022-09-09T07:58:30;4.73;;;3.70;;
12482;SDS011;6306;47.134;15.344;2022-09-09T08:00:56;3.30;;;2.20;;
12482;SDS011;6306;47.134;15.344;2022-09-09T08:03:22;2.30;;;2.10;;
12482;SDS011;6306;47.134;15.344;2022-09-09T08:05:48;3.10;;;2.30;;
12482;SDS011;6306;47.134;15.344;2022-09-09T08:08:14;3.00;;;2.17;;
12482;SDS011;6306;47.134;15.344;2022-09-09T08:10:41;3.17;;;2.87;;
12482;SDS011;6306;47.134;15.344;2022-09-09T08:13:08;3.07;;;2.80;;
12482;SDS011;6306;47.134;15.344;2022-09-09T08:15:34;2.33;;;2.13;;
12482;SDS011;6306;47.134;15.344;2022-09-09T08:18:00;3.30;;;3.00;;
12482;SDS011;6306;47.134;15.344;2022-09-09T08:20:27;2.23;;;2.03;;
12482;SDS011;6306;47.134;15.344;2022-09-09T08:22:54;2.60;;;1.80;;
12482;SDS011;6306;47.134;15.344;2022-09-09T08:25:20;2.47;;;2.23;;
12482;SDS011;6306;47.134;15.344;2022-09-09T08:27:46;2.90;;;2.70;;
12482;SDS011;6306;47.134;15.344;2022-09-09T08:30:13;2.77;;;1.97;;
12482;SDS011;6306;47.134;15.344;2022-09-09T08:32:39;2.00;;;1.80;;
12482;SDS011;6306;47.134;15.344;2022-09-09T08:35:05;3.80;;;2.63;;
12482;SDS011;6306;47.134;15.344;2022-09-09T08:37:31;7.00;;;2.53;;
12482;SDS011;6306;47.134;15.344;2022-09-09T08:39:58;3.03;;;2.13;;
12482;SDS011;6306;47.134;15.344;2022-09-09T08:44:54;3.33;;;2.47;;
12482;SDS011;6306;47.134;15.344;2022-09-09T08:50:26;2.93;;;2.63;;
12482;SDS011;6306;47.134;15.344;2022-09-09T08:55:45;3.67;;;2.50;;
12482;SDS011;6306;47.134;15.344;2022-09-09T09:03:31;2.70;;;2.50;;
12482;SDS011;6306;47.134;15.344;2022-09-09T09:11:14;2.47;;;2.37;;
12482;SDS011;6306;47.134;15.344;2022-09-09T09:13:43;2.70;;;2.50;;
12482;SDS011;6306;47.134;15.344;2022-09-09T09:16:13;3.47;;;3.07;;
12482;SDS011;6306;47.134;15.344;2022-09-09T09:18:40;2.90;;;2.70;;
12482;SDS011;6306;47.134;15.344;2022-09-09T09:21:15;2.27;;;2.07;;
12482;SDS011;6306;47.134;15.344;2022-09-09T09:23:45;3.03;;;2.77;;
12482;SDS011;6306;47.134;15.344;2022-09-09T09:26:15;3.37;;;2.93;;
12482;SDS011;6306;47.134;15.344;2022-09-09T09:28:41;3.20;;;2.90;;
12482;SDS011;6306;47.134;15.344;2022-09-09T09:31:11;3.47;;;2.23;;
12482;SDS011;6306;47.134;15.344;2022-09-09T09:33:51;2.83;;;2.57;;
12482;SDS011;6306;47.134;15.344;2022-09-09T09:36:18;2.63;;;2.43;;
12482;SDS011;6306;47.134;15.344;2022-09-09T09:38:55;2.70;;;2.50;;
12482;SDS011;6306;47.134;15.344;2022-09-09T09:41:34;3.33;;;2.07;;
12482;SDS011;6306;47.134;15.344;2022-09-09T09:44:01;2.50;;;2.30;;
12482;SDS011;6306;47.134;15.344;2022-09-09T09:46:27;2.30;;;2.20;;
12482;SDS011;6306;47.134;15.344;2022-09-09T09:48:57;3.10;;;2.80;;
12482;SDS011;6306;47.134;15.344;2022-09-09T09:51:24;3.37;;;2.77;;
12482;SDS011;6306;47.134;15.344;2022-09-09T09:53:50;2.93;;;2.67;;
12482;SDS011;6306;47.134;15.344;2022-09-09T09:56:25;2.70;;;2.43;;
12482;SDS011;6306;47.134;15.344;2022-09-09T09:58:52;3.83;;;2.57;;
12482;SDS011;6306;47.134;15.344;2022-09-09T10:01:23;2.13;;;1.93;;
12482;SDS011;6306;47.134;15.344;2022-09-09T10:03:51;2.60;;;2.40;;
12482;SDS011;6306;47.134;15.344;2022-09-09T10:06:17;7.63;;;2.53;;
12482;SDS011;6306;47.134;15.344;2022-09-09T10:08:46;1.80;;;1.70;;
12482;SDS011;6306;47.134;15.344;2022-09-09T10:11:19;2.07;;;1.83;;
12482;SDS011;6306;47.134;15.344;2022-09-09T10:16:27;1.97;;;1.77;;
12482;SDS011;6306;47.134;15.344;2022-09-09T10:19:01;2.40;;;1.57;;
12482;SDS011;6306;47.134;15.344;2022-09-09T10:26:58;2.60;;;2.40;;
12482;SDS011;6306;47.134;15.344;2022-09-09T10:37:40;2.17;;;1.73;;
12482;SDS011;6306;47.134;15.344;2022-09-09T10:42:56;2.17;;;1.63;;
12482;SDS011;6306;47.134;15.344;2022-09-09T10:50:29;2.50;;;1.60;;
12482;SDS011;6306;47.134;15.344;2022-09-09T10:55:53;2.53;;;2.23;;
12482;SDS011;6306;47.134;15.344;2022-09-09T10:58:25;1.93;;;1.37;;
12482;SDS011;6306;47.134;15.344;2022-09-09T11:00:54;2.50;;;1.80;;
12482;SDS011;6306;47.134;15.344;2022-09-09T11:03:24;3.83;;;1.80;;
12482;SDS011;6306;47.134;15.344;2022-09-09T11:05:53;1.50;;;1.40;;
12482;SDS011;6306;47.134;15.344;2022-09-09T11:08:23;2.03;;;1.83;;
12482;SDS011;6306;47.134;15.344;2022-09-09T11:16:16;1.93;;;1.50;;
12482;SDS011;6306;47.134;15.344;2022-09-09T11:18:45;1.50;;;1.40;;
12482;SDS011;6306;47.134;15.344;2022-09-09T11:21:22;1.97;;;1.70;;
12482;SDS011;6306;47.134;15.344;2022-09-09T11:23:50;2.07;;;1.57;;
12482;SDS011;6306;47.134;15.344;2022-09-09T11:26:24;2.60;;;2.03;;
12482;SDS011;6306;47.134;15.344;2022-09-09T11:31:31;2.97;;;2.20;;
12482;SDS011;6306;47.134;15.344;2022-09-09T11:41:42;1.80;;;1.70;;
12482;SDS011;6306;47.134;15.344;2022-09-09T11:44:12;2.80;;;1.53;;
12482;SDS011;6306;47.134;15.344;2022-09-09T11:46:39;1.93;;;1.73;;
12482;SDS011;6306;47.134;15.344;2022-09-09T11:49:21;3.30;;;1.77;;
12482;SDS011;6306;47.134;15.344;2022-09-09T11:51:49;1.63;;;1.53;;
12482;SDS011;6306;47.134;15.344;2022-09-09T11:56:47;8.70;;;1.77;;
12482;SDS011;6306;47.134;15.344;2022-09-09T11:59:20;3.83;;;2.00;;
12482;SDS011;6306;47.134;15.344;2022-09-09T12:04:27;2.00;;;1.87;;
12482;SDS011;6306;47.134;15.344;2022-09-09T12:06:58;2.57;;;1.80;;
12482;SDS011;6306;47.134;15.344;2022-09-09T12:09:27;2.50;;;2.30;;
12482;SDS011;6306;47.134;15.344;2022-09-09T12:12:05;2.60;;;2.20;;
12482;SDS011;6306;47.134;15.344;2022-09-09T12:17:20;2.17;;;1.70;;
12482;SDS011;6306;47.134;15.344;2022-09-09T12:19:47;1.87;;;1.77;;
12482;SDS011;6306;47.134;15.344;2022-09-09T12:22:26;2.40;;;1.90;;
12482;SDS011;6306;47.134;15.344;2022-09-09T12:25:01;2.27;;;2.07;;
12482;SDS011;6306;47.134;15.344;2022-09-09T12:27:55;1.37;;;1.20;;
12482;SDS011;6306;47.134;15.344;2022-09-09T12:30:22;2.20;;;1.70;;
12482;SDS011;6306;47.134;15.344;2022-09-09T12:33:01;1.60;;;1.50;;
12482;SDS011;6306;47.134;15.344;2022-09-09T12:35:27;2.70;;;1.60;;
12482;SDS011;6306;47.134;15.344;2022-09-09T12:37:58;1.40;;;1.30;;
12482;SDS011;6306;47.134;15.344;2022-09-09T12:40:29;2.80;;;2.17;;
12482;SDS011;6306;47.134;15.344;2022-09-09T12:42:57;1.63;;;1.50;;
12482;SDS011;6306;47.134;15.344;2022-09-09T12:45:30;2.30;;;1.77;;
12482;SDS011;6306;47.134;15.344;2022-09-09T12:50:24;1.63;;;1.53;;
12482;SDS011;6306;47.134;15.344;2022-09-09T12:52:51;2.10;;;1.90;;
12482;SDS011;6306;47.134;15.344;2022-09-09T12:55:20;1.87;;;1.77;;
12482;SDS011;6306;47.134;15.344;2022-09-09T12:57:46;1.67;;;1.57;;
12482;SDS011;6306;47.134;15.344;2022-09-09T13:00:20;1.67;;;1.20;;
12482;SDS011;6306;47.134;15.344;2022-09-09T13:02:51;1.80;;;1.47;;
12482;SDS011;6306;47.134;15.344;2022-09-09T13:05:19;1.43;;;1.33;;
12482;SDS011;6306;47.134;15.344;2022-09-09T13:07:45;2.83;;;2.10;;
12482;SDS011;6306;47.134;15.344;2022-09-09T13:10:12;2.53;;;1.90;;
12482;SDS011;6306;47.134;15.344;2022-09-09T13:12:39;1.77;;;1.63;;
12482;SDS011;6306;47.134;15.344;2022-09-09T13:15:10;2.80;;;1.53;;
12482;SDS011;6306;47.134;15.344;2022-09-09T13:17:39;2.00;;;1.60;;
12482;SDS011;6306;47.134;15.344;2022-09-09T13:20:06;2.00;;;1.70;;
12482;SDS011;6306;47.134;15.344;2022-09-09T13:22:37;2.20;;;2.00;;
12482;SDS011;6306;47.134;15.344;2022-09-09T13:25:13;2.10;;;2.00;;
12482;SDS011;6306;47.134;15.344;2022-09-09T13:27:51;2.80;;;2.17;;
12482;SDS011;6306;47.134;15.344;2022-09-09T13:30:22;2.17;;;1.97;;
12482;SDS011;6306;47.134;15.344;2022-09-09T13:33:34;2.20;;;1.80;;
12482;SDS011;6306;47.134;15.344;2022-09-09T13:35:35;1.73;;;1.63;;
12482;SDS011;6306;47.134;15.344;2022-09-09T13:38:08;1.67;;;1.57;;
12482;SDS011;6306;47.134;15.344;2022-09-09T13:40:37;3.43;;;2.10;;
12482;SDS011;6306;47.134;15.344;2022-09-09T13:43:03;1.73;;;1.50;;
12482;SDS011;6306;47.134;15.344;2022-09-09T13:45:30;4.00;;;1.87;;
12482;SDS011;6306;47.134;15.344;2022-09-09T13:47:56;2.90;;;1.57;;
12482;SDS011;6306;47.134;15.344;2022-09-09T13:52:49;1.80;;;1.47;;
12482;SDS011;6306;47.134;15.344;2022-09-09T13:55:16;1.67;;;1.47;;
12482;SDS011;6306;47.134;15.344;2022-09-09T14:00:17;2.40;;;1.60;;
12482;SDS011;6306;47.134;15.344;2022-09-09T14:02:43;1.83;;;1.67;;
12482;SDS011;6306;47.134;15.344;2022-09-09T14:05:10;1.47;;;1.37;;
12482;SDS011;6306;47.134;15.344;2022-09-09T14:07:36;2.33;;;1.90;;
12482;SDS011;6306;47.134;15.344;2022-09-09T14:10:04;1.60;;;1.50;;
12482;SDS011;6306;47.134;15.344;2022-09-09T14:12:30;1.60;;;1.50;;
12482;SDS011;6306;47.134;15.344;2022-09-09T14:14:56;2.67;;;1.67;;
12482;SDS011;6306;47.134;15.344;2022-09-09T14:17:22;1.73;;;1.50;;
12482;SDS011;6306;47.134;15.344;2022-09-09T14:19:50;2.30;;;1.80;;
12482;SDS011;6306;47.134;15.344;2022-09-09T14:22:15;1.30;;;1.20;;
12482;SDS011;6306;47.134;15.344;2022-09-09T14:24:42;2.50;;;1.70;;
12482;SDS011;6306;47.134;15.344;2022-09-09T14:27:08;2.30;;;1.40;;
12482;SDS011;6306;47.134;15.344;2022-09-09T14:29:34;1.70;;;1.50;;
12482;SDS011;6306;47.134;15.344;2022-09-09T14:32:00;1.30;;;1.20;;
12482;SDS011;6306;47.134;15.344;2022-09-09T14:34:26;2.00;;;1.90;;
12482;SDS011;6306;47.134;15.344;2022-09-09T14:36:52;1.57;;;1.47;;
12482;SDS011;6306;47.134;15.344;2022-09-09T14:39:18;3.00;;;1.60;;
12482;SDS011;6306;47.134;15.344;2022-09-09T14:41:44;2.30;;;1.77;;
12482;SDS011;6306;47.134;15.344;2022-09-09T14:44:11;2.80;;;2.23;;
12482;SDS011;6306;47.134;15.344;2022-09-09T14:46:37;2.23;;;1.90;;
12482;SDS011;6306;47.134;15.344;2022-09-09T14:49:03;2.00;;;1.50;;
12482;SDS011;6306;47.134;15.344;2022-09-09T14:51:29;2.20;;;1.70;;
12482;SDS011;6306;47.134;15.344;2022-09-09T14:53:56;2.70;;;2.50;;
12482;SDS011;6306;47.134;15.344;2022-09-09T14:56:23;2.20;;;1.90;;
12482;SDS011;6306;47.134;15.344;2022-09-09T14:58:49;2.43;;;2.03;;
12482;SDS011;6306;47.134;15.344;2022-09-09T15:01:16;2.00;;;1.77;;
12482;SDS011;6306;47.134;15.344;2022-09-09T15:03:48;1.90;;;1.80;;
12482;SDS011;6306;47.134;15.344;2022-09-09T15:06:14;3.67;;;2.40;;
12482;SDS011;6306;47.134;15.344;2022-09-09T15:08:41;4.43;;;2.20;;
12482;SDS011;6306;47.134;15.344;2022-09-09T15:11:07;3.03;;;2.43;;
12482;SDS011;6306;47.134;15.344;2022-09-09T15:13:34;2.77;;;2.10;;
12482;SDS011;6306;47.134;15.344;2022-09-09T15:16:08;4.33;;;2.60;;
12482;SDS011;6306;47.134;15.344;2022-09-09T15:18:35;2.87;;;2.10;;
12482;SDS011;6306;47.134;15.344;2022-09-09T15:21:02;4.40;;;1.80;;
12482;SDS011;6306;47.134;15.344;2022-09-09T15:23:33;1.87;;;1.77;;
12482;SDS011;6306;47.134;15.344;2022-09-09T15:25:59;2.33;;;2.00;;
12482;SDS011;6306;47.134;15.344;2022-09-09T15:28:25;2.00;;;1.80;;
12482;SDS011;6306;47.134;15.344;2022-09-09T15:30:52;2.97;;;1.73;;
12482;SDS011;6306;47.134;15.344;2022-09-09T15:33:19;4.93;;;1.77;;
12482;SDS011;6306;47.134;15.344;2022-09-09T15:35:45;3.00;;;1.80;;
12482;SDS011;6306;47.134;15.344;2022-09-09T15:38:11;7.23;;;6.73;;
12482;SDS011;6306;47.134;15.344;2022-09-09T15:40:41;2.47;;;2.27;;
12482;SDS011;6306;47.134;15.344;2022-09-09T15:43:07;2.43;;;2.20;;
12482;SDS011;6306;47.134;15.344;2022-09-09T15:45:36;3.17;;;2.13;;
12482;SDS011;6306;47.134;15.344;2022-09-09T15:48:02;2.13;;;2.03;;
12482;SDS011;6306;47.134;15.344;2022-09-09T15:50:29;2.87;;;1.73;;
12482;SDS011;6306;47.134;15.344;2022-09-09T15:52:57;4.70;;;2.10;;
12482;SDS011;6306;47.134;15.344;2022-09-09T15:55:23;3.60;;;3.00;;
12482;SDS011;6306;47.134;15.344;2022-09-09T15:57:49;2.50;;;2.27;;
12482;SDS011;6306;47.134;15.344;2022-09-09T16:00:17;3.53;;;2.67;;
12482;SDS011;6306;47.134;15.344;2022-09-09T16:02:43;9.77;;;2.30;;
12482;SDS011;6306;47.134;15.344;2022-09-09T16:05:09;3.07;;;2.27;;
12482;SDS011;6306;47.134;15.344;2022-09-09T16:07:35;7.03;;;2.40;;
12482;SDS011;6306;47.134;15.344;2022-09-09T16:10:02;3.60;;;2.53;;
12482;SDS011;6306;47.134;15.344;2022-09-09T16:12:28;3.00;;;2.17;;
12482;SDS011;6306;47.134;15.344;2022-09-09T16:14:54;5.27;;;3.23;;
12482;SDS011;6306;47.134;15.344;2022-09-09T16:17:20;1.83;;;1.73;;
12482;SDS011;6306;47.134;15.344;2022-09-09T16:19:46;6.07;;;2.50;;
12482;SDS011;6306;47.134;15.344;2022-09-09T16:22:12;2.20;;;2.00;;
12482;SDS011;6306;47.134;15.344;2022-09-09T16:24:40;4.23;;;2.13;;
12482;SDS011;6306;47.134;15.344;2022-09-09T16:27:07;3.60;;;2.10;;
12482;SDS011;6306;47.134;15.344;2022-09-09T16:29:33;4.90;;;2.60;;
12482;SDS011;6306;47.134;15.344;2022-09-09T16:31:59;3.80;;;2.50;;
12482;SDS011;6306;47.134;15.344;2022-09-09T16:34:25;3.13;;;2.33;;
12482;SDS011;6306;47.134;15.344;2022-09-09T16:36:51;2.97;;;2.30;;
12482;SDS011;6306;47.134;15.344;2022-09-09T16:39:17;3.33;;;2.40;;
12482;SDS011;6306;47.134;15.344;2022-09-09T16:41:44;2.80;;;2.00;;
12482;SDS011;6306;47.134;15.344;2022-09-09T16:44:11;3.57;;;2.30;;
12482;SDS011;6306;47.134;15.344;2022-09-09T16:46:38;2.07;;;1.80;;
12482;SDS011;6306;47.134;15.344;2022-09-09T16:49:09;2.10;;;1.90;;
12482;SDS011;6306;47.134;15.344;2022-09-09T16:51:42;3.57;;;2.13;;
12482;SDS011;6306;47.134;15.344;2022-09-09T16:54:09;2.77;;;1.70;;
12482;SDS011;6306;47.134;15.344;2022-09-09T16:56:37;2.10;;;1.83;;
12482;SDS011;6306;47.134;15.344;2022-09-09T16:59:04;1.50;;;1.40;;